Latest Weather Observations for Newman Airport

IDW60801

Issued at 12:23 pm WST Monday 30 March 2020 (issued every 10 minutes, with the page automatically refreshed every 10 minutes)

About weather observations | Map of weather stations | Latest weather observations for WA | Other Formats
Station Details ID: 007176 Name: NEWMAN AERO Lat: -23.42 Lon: 119.80 Height: 524.0 m
Data from the previous 72 hours. | See also: Recent months at Newman Airport
Date/Time
WST
Temp
°C
App
Temp
°C
Dew
Point
°C
Rel
Hum
%
Delta-T
°C
Wind Press
QNH
hPa
Press
MSL
hPa
Rain since
9am
mm
Dir  Spd
km/h
Gust
km/h
Spd
kts
Gust
kts
30/12:00pm 36.3 34.0 7.4 17 16.5 SSE 9 17 5 9 1013.4 1009.4 0.0
30/11:30am 36.2 34.4 8.1 18 16.2 E 7 11 4 6 1014.1 1010.1 0.0
30/11:00am 35.1 33.1 8.8 20 15.3 NNE 9 17 5 9 1014.6 1010.7 0.0
30/10:30am 34.3 31.8 8.1 20 15.0 E 11 20 6 11 1015.1 1011.2 0.0
30/10:00am 34.0 31.8 9.3 22 14.4 NE 11 19 6 10 1015.4 1011.4 0.0
30/09:30am 33.5 31.5 10.2 24 13.7 E 11 17 6 9 1015.7 1011.7 0.0
30/09:00am 31.6 29.6 10.3 27 12.5 ENE 11 17 6 9 1015.8 1011.8 0.0
30/08:30am 29.8 27.7 9.9 29 11.5 ESE 11 17 6 9 1016.0 1012.1 0.0
30/08:00am 28.0 25.6 8.8 30 10.8 SE 11 15 6 8 1016.0 1012.1 0.0
30/07:30am 26.6 25.0 8.6 32 10.0 S 7 9 4 5 1015.7 1011.7 0.0
30/07:00am 25.1 23.5 8.1 34 9.3 SSW 6 9 3 5 1015.2 1011.3 0.0
30/06:30am 22.9 21.2 7.4 37 8.3 SW 6 7 3 4 1014.9 1011.0 0.0
30/06:00am 23.1 21.2 6.8 35 8.6 WSW 6 7 3 4 1014.3 1010.4 0.0
30/05:30am 24.1 22.1 7.3 34 9.0 SW 7 11 4 6 1014.0 1010.0 0.0
30/05:00am 24.8 22.0 7.0 32 9.5 SW 11 15 6 8 1013.6 1009.6 0.0
30/04:30am 25.3 22.9 7.0 31 9.8 SW 9 11 5 6 1013.2 1009.3 0.0
30/04:00am 25.2 22.8 6.9 31 9.8 SW 9 13 5 7 1013.1 1009.2 0.0
30/03:30am 25.4 23.0 7.1 31 9.9 SW 9 11 5 6 1013.0 1009.1 0.0
30/03:00am 25.1 23.0 6.8 31 9.8 WSW 7 11 4 6 1012.9 1009.0 0.0
30/02:30am 25.3 22.4 6.5 30 10.0 WSW 11 13 6 7 1013.0 1009.1 0.0
30/02:00am 25.8 23.6 6.4 29 10.3 SW 7 11 4 6 1012.8 1008.9 0.0
30/01:30am 25.4 22.9 6.6 30 10.0 SW 9 11 5 6 1013.1 1009.2 0.0
30/01:00am 25.6 23.4 6.3 29 10.3 SW 7 9 4 5 1013.2 1009.3 0.0
30/12:30am 26.3 24.1 6.4 28 10.6 SW 7 9 4 5 1013.6 1009.6 0.0
30/12:00am 26.2 24.0 6.3 28 10.6 SW 7 9 4 5 1013.9 1009.9 0.0
 
Date/Time
WST
Temp
°C
App
Temp
°C
Dew
Point
°C
Rel
Hum
%
Delta-T
°C
Wind Press
QNH
hPa
Press
MSL
hPa
Rain since
9am
mm
Dir  Spd
km/h
Gust
km/h
Spd
kts
Gust
kts
29/11:30pm 27.4 25.2 6.2 26 11.4 SSW 7 9 4 5 1014.0 1010.0 0.0
29/11:00pm 28.4 26.1 5.9 24 12.1 S 7 9 4 5 1014.2 1010.3 0.0
29/10:30pm 29.4 27.2 6.1 23 12.6 SSE 7 11 4 6 1014.2 1010.3 0.0
29/10:00pm 30.6 27.6 5.8 21 13.4 S 11 15 6 8 1014.4 1010.5 0.0
29/09:30pm 31.6 27.7 5.2 19 14.2 S 15 20 8 11 1014.4 1010.5 0.0
29/09:00pm 31.9 28.2 4.6 18 14.6 S 13 17 7 9 1014.3 1010.4 0.0
29/08:30pm 32.4 28.4 5.1 18 14.8 S 15 20 8 11 1014.0 1010.0 0.0
29/08:00pm 32.7 28.6 4.5 17 15.1 S 15 20 8 11 1013.7 1009.7 0.0
29/07:30pm 33.4 29.7 4.2 16 15.6 S 13 17 7 9 1013.2 1009.3 0.0
29/07:00pm 34.5 30.4 4.1 15 16.4 S 15 20 8 11 1012.8 1008.9 0.0
29/06:30pm 35.4 30.5 3.9 14 17.0 S 19 26 10 14 1012.4 1008.5 0.0
29/06:00pm 36.1 33.3 3.3 13 17.6 SE 7 11 4 6 1012.1 1008.1 0.0
29/05:30pm 36.6 33.3 2.6 12 18.1 SE 9 15 5 8 1011.8 1007.8 0.0
29/05:00pm 36.9 32.9 2.8 12 18.2 SE 13 20 7 11 1011.8 1007.8 0.0
29/04:30pm 37.1 33.5 3.0 12 18.3 S 11 17 6 9 1011.7 1007.7 0.0
29/04:00pm 37.8 33.3 2.3 11 18.9 S 15 20 8 11 1011.6 1007.6 0.0
29/03:30pm 37.8 34.5 2.3 11 18.9 SE 9 13 5 7 1011.7 1007.7 0.0
29/03:00pm 38.2 33.8 2.6 11 19.1 SSE 15 22 8 12 1011.8 1007.8 0.0
29/02:30pm 38.0 34.3 2.5 11 19.0 S 11 22 6 12 1011.9 1007.9 0.0
29/02:00pm 37.6 34.2 2.1 11 18.8 N 9 13 5 7 1012.0 1008.0 0.0
29/01:30pm 38.2 34.9 2.6 11 19.1 ESE 9 17 5 9 1012.3 1008.3 0.0
29/01:00pm 38.5 34.9 2.8 11 19.2 SSE 11 19 6 10 1012.8 1008.9 0.0
29/12:30pm 37.2 33.2 3.1 12 18.3 S 13 22 7 12 1013.1 1009.2 0.0
29/12:00pm 36.8 32.8 2.8 12 18.2 SSE 13 22 7 12 1013.7 1009.7 0.0
29/11:30am 36.7 33.5 4.9 14 17.5 ESE 11 19 6 10 1014.0 1010.0 0.0
29/11:00am 35.0 31.5 5.4 16 16.3 SE 13 20 7 11 1014.5 1010.6 0.0
29/10:30am 34.9 31.9 6.2 17 16.0 ESE 11 17 6 9 1014.8 1010.9 0.0
29/10:00am 34.0 30.5 7.1 19 15.1 SE 15 20 8 11 1015.2 1011.3 0.0
29/09:30am 32.6 29.4 6.7 20 14.4 SE 13 20 7 11 1015.4 1011.4 0.0
29/09:00am 32.1 28.9 7.0 21 14.0 SE 13 20 7 11 1015.2 1011.3 0.0
29/08:30am 30.4 26.5 7.0 23 12.9 SE 17 24 9 13 1015.2 1011.3 0.0
29/08:00am 28.7 25.6 7.3 26 11.8 SSE 13 19 7 10 1015.2 1011.3 0.0
29/07:30am 27.5 25.2 7.4 28 11.0 S 9 13 5 7 1015.0 1011.1 0.0
29/07:00am 25.7 23.5 7.8 32 9.8 SW 9 11 5 6 1014.9 1011.0 0.0
29/06:30am 23.9 22.0 7.5 35 8.8 WSW 7 9 4 5 1014.8 1010.9 0.0
29/06:00am 24.5 22.2 7.6 34 9.1 SW 9 11 5 6 1014.4 1010.5 0.0
29/05:30am 24.7 22.0 7.4 33 9.3 SSW 11 13 6 7 1014.3 1010.4 0.0
29/05:00am 25.3 23.4 7.4 32 9.7 WSW 7 9 4 5 1014.1 1010.1 0.0
29/04:30am 26.6 24.0 7.6 30 10.4 SW 11 13 6 7 1013.8 1009.8 0.0
29/04:00am 27.0 24.7 7.5 29 10.7 SW 9 11 5 6 1013.6 1009.6 0.0
29/03:30am 27.5 25.4 6.8 27 11.2 SW 7 9 4 5 1013.4 1009.4 0.0
29/03:00am 28.9 26.5 6.9 25 12.0 SW 9 11 5 6 1013.5 1009.5 0.0
29/02:30am 29.9 27.2 7.2 24 12.5 SSW 11 15 6 8 1013.6 1009.6 0.0
29/02:00am 30.0 27.0 6.0 22 13.0 SSW 11 13 6 7 1013.6 1009.6 0.0
29/01:30am 29.7 27.0 5.7 22 12.9 SW 9 13 5 7 1013.7 1009.7 0.0
29/01:00am 30.2 28.0 6.1 22 13.1 SSW 7 9 4 5 1013.7 1009.7 0.0
29/12:30am 30.4 28.1 5.6 21 13.4 SW 7 9 4 5 1013.7 1009.7 0.0
29/12:00am 31.0 27.9 5.4 20 13.8 S 11 13 6 7 1013.5 1009.5 0.0
 
Date/Time
WST
Temp
°C
App
Temp
°C
Dew
Point
°C
Rel
Hum
%
Delta-T
°C
Wind Press
QNH
hPa
Press
MSL
hPa
Rain since
9am
mm
Dir  Spd
km/h
Gust
km/h
Spd
kts
Gust
kts
28/11:30pm 31.9 28.0 5.4 19 14.4 S 15 20 8 11 1013.7 1009.7 0.0
28/11:00pm 32.6 28.1 4.4 17 15.1 S 17 22 9 12 1014.0 1010.0 0.0
28/10:30pm 33.5 27.7 4.2 16 15.7 S 24 35 13 19 1014.0 1010.0 0.0
28/10:00pm 33.3 29.7 5.0 17 15.4 S 13 30 7 16 1014.0 1010.0 0.0
28/09:30pm 31.6 28.3 4.4 18 14.5 SSW 11 13 6 7 1013.8 1009.8 0.0
28/09:00pm 31.0 29.8 4.7 19 14.0 CALM 0 0 0 0 1013.6 1009.6 0.0
28/08:30pm 31.8 30.6 4.6 18 14.5 CALM 0 0 0 0 1013.4 1009.4 0.0
28/08:00pm 33.3 30.7 3.2 15 15.9 ESE 6 7 3 4 1013.2 1009.3 0.0
28/07:30pm 34.3 31.7 3.0 14 16.5 E 6 7 3 4 1012.8 1008.9 0.0
28/07:00pm 35.0 32.1 2.5 13 17.1 ENE 7 9 4 5 1012.4 1008.5 0.0
28/06:30pm 35.6 32.6 1.8 12 17.6 NE 7 9 4 5 1012.1 1008.1 0.0
28/06:00pm 36.5 33.0 1.3 11 18.3 NE 9 11 5 6 1011.8 1007.8 0.0
28/05:30pm 37.3 33.3 0.6 10 19.0 NE 11 17 6 9 1011.7 1007.7 0.0
28/05:00pm 38.3 35.4 1.3 10 19.5 SSW 6 15 3 8 1011.6 1007.6 0.0
28/04:30pm 39.2 35.4 2.0 10 19.9 NW 11 19 6 10 1011.5 1007.5 0.0
28/04:00pm 38.5 34.7 1.5 10 19.6 NNW 11 17 6 9 1011.6 1007.6 0.0
28/03:30pm 39.5 36.5 2.2 10 20.0 SW 7 13 4 7 1011.8 1007.8 0.0
28/03:00pm 39.4 35.8 0.7 9 20.3 WNW 9 15 5 8 1012.0 1008.0 0.0
28/02:30pm 38.3 33.7 1.3 10 19.5 W 15 20 8 11 1012.3 1008.3 0.0
28/02:00pm 38.7 34.3 0.2 9 20.0 N 13 22 7 12 1012.7 1008.8 0.0
28/01:30pm 38.3 34.2 -0.1 9 19.8 W 11 17 6 9 1013.1 1009.2 0.0
28/01:00pm 37.9 33.8 -0.4 9 19.6 NNW 11 20 6 11 1013.7 1009.7 0.0
28/12:30pm 37.7 33.9 -0.6 9 19.5 WNW 9 17 5 9 1014.2 1010.3 0.0
28/12:00pm 37.7 32.9 -2.2 8 19.8 NW 13 24 7 13 1014.7 1010.8 0.0
28/11:30am 37.3 32.1 -2.4 8 19.6 NNE 15 20 8 11 1015.4 1011.4 0.0
28/11:00am 36.2 31.5 -1.7 9 18.8 NNE 13 20 7 11 1015.8 1011.8 0.0
28/10:30am 36.3 31.4 -0.2 10 18.5 N 15 22 8 12 1016.2 1012.3 0.0
28/10:00am 35.2 30.4 0.3 11 17.7 N 15 24 8 13 1016.4 1012.5 0.0
28/09:30am 34.7 29.9 -0.1 11 17.5 NNE 15 20 8 11 1016.5 1012.6 0.0
28/09:00am 32.9 28.9 2.9 15 15.7 NNE 13 19 7 10 1016.7 1012.8 0.0
28/08:30am 31.3 27.9 1.6 15 15.1 NNE 9 13 5 7 1016.7 1012.8 0.0
28/08:00am 30.8 28.3 3.8 18 14.2 NNW 6 9 3 5 1016.7 1012.8 0.0
28/07:30am 26.8 25.9 6.2 27 11.0 CALM 0 0 0 0 1016.3 1012.4 0.0
28/07:00am 22.8 21.0 7.0 36 8.4 S 6 9 3 5 1016.1 1012.2 0.0
28/06:30am 21.2 19.3 6.7 39 7.6 WSW 6 7 3 4 1015.8 1011.8 0.0
28/06:00am 20.9 18.8 6.8 40 7.4 SW 7 7 4 4 1015.5 1011.5 0.0
28/05:30am 21.1 19.2 6.6 39 7.5 SW 6 7 3 4 1015.2 1011.3 0.0
28/05:00am 21.4 19.5 6.5 38 7.7 WSW 6 7 3 4 1014.9 1011.0 0.0
28/04:30am 22.2 20.6 6.4 36 8.2 WSW 4 6 2 3 1014.7 1010.8 0.0
28/04:00am 21.8 19.6 6.1 36 8.1 WSW 7 7 4 4 1014.7 1010.8 0.0
28/03:30am 22.2 20.0 6.0 35 8.4 WSW 7 9 4 5 1014.7 1010.8 0.0
28/03:00am 22.8 21.1 5.7 33 8.8 SW 4 7 2 4 1014.7 1010.8 0.0
28/02:30am 23.0 21.0 6.3 34 8.7 SW 6 7 3 4 1014.8 1010.9 0.0
28/02:00am 23.2 21.2 6.1 33 8.9 WSW 6 7 3 4 1014.8 1010.9 0.0
28/01:30am 23.7 21.5 6.0 32 9.3 WNW 7 7 4 4 1014.9 1011.0 0.0
28/01:00am 24.1 23.2 5.9 31 9.5 CALM 0 0 0 0 1014.9 1011.0 0.0
28/12:30am 24.6 23.8 6.4 31 9.6 CALM 0 0 0 0 1015.0 1011.1 0.0
28/12:00am 25.3 24.3 5.5 28 10.4 CALM 0 0 0 0 1015.1 1011.2 0.0
 
Date/Time
WST
Temp
°C
App
Temp
°C
Dew
Point
°C
Rel
Hum
%
Delta-T
°C
Wind Press
QNH
hPa
Press
MSL
hPa
Rain since
9am
mm
Dir  Spd
km/h
Gust
km/h
Spd
kts
Gust
kts
27/11:30pm 25.7 24.9 6.3 29 10.3 CALM 0 0 0 0 1015.2 1011.3 0.0
27/11:00pm 26.6 25.6 5.5 26 11.1 CALM 0 0 0 0 1015.4 1011.4 0.0
27/10:30pm 27.5 26.5 5.7 25 11.6 CALM 0 0 0 0 1015.5 1011.5 0.0
27/10:00pm 28.4 27.3 5.3 23 12.3 CALM 0 0 0 0 1015.6 1011.6 0.0
27/09:30pm 29.9 27.7 5.2 21 13.2 E 6 7 3 4 1015.8 1011.8 0.0
27/09:00pm 30.9 28.7 5.3 20 13.8 E 6 7 3 4 1015.7 1011.7 0.0
27/08:30pm 31.5 29.1 5.1 19 14.2 ESE 7 11 4 6 1015.6 1011.6 0.0
27/08:00pm 32.0 29.7 4.7 18 14.6 ESE 6 9 3 5 1015.2 1011.3 0.0
27/07:30pm 33.0 30.5 4.7 17 15.3 ESE 7 11 4 6 1015.0 1011.1 0.0
27/07:00pm 33.9 31.4 4.6 16 15.8 ESE 7 9 4 5 1014.6 1010.7 0.0
27/06:30pm 34.9 32.3 4.4 15 16.5 SE 7 9 4 5 1014.5 1010.6 0.0
27/06:00pm 36.0 33.0 4.3 14 17.2 SE 9 15 5 8 1014.3 1010.4 0.0
27/05:30pm 36.7 32.5 3.8 13 17.8 SSE 15 19 8 10 1014.2 1010.3 0.0
27/05:00pm 37.4 33.5 3.2 12 18.4 SSE 13 20 7 11 1014.1 1010.1 0.0
27/04:30pm 38.1 34.7 3.8 12 18.7 ESE 11 20 6 11 1014.1 1010.1 0.0
27/04:00pm 38.1 36.0 3.8 12 18.7 NNE 4 9 2 5 1014.1 1010.1 0.0
27/03:30pm 38.4 35.9 4.0 12 18.9 SSW 6 19 3 10 1014.3 1010.4 0.0
27/03:00pm 38.7 35.7 4.2 12 19.0 S 9 24 5 13 1014.4 1010.5 0.0
27/02:30pm 38.0 35.3 3.7 12 18.7 ENE 7 15 4 8 1014.6 1010.7 0.0
27/02:00pm 37.1 33.7 4.1 13 18.0 E 11 20 6 11 1015.0 1011.1 0.0
27/01:30pm 37.4 34.6 3.2 12 18.4 SE 7 11 4 6 1015.4 1011.4 0.0
27/01:00pm 36.2 33.3 4.5 14 17.3 S 9 11 5 6 1015.8 1011.8 0.0
27/12:30pm 35.5 31.9 4.9 15 16.8 ENE 13 22 7 12 1016.3 1012.4 0.0

Other formats

Comma delimited format used in spreadsheet applications
http://www.bom.gov.au/fwo/IDW60801/IDW60801.94317.axf

JavaScript Object Notation format (JSON) in row-major order
http://www.bom.gov.au/fwo/IDW60801/IDW60801.94317.json

Data quality

Most of these data are generated automatically and are frequently updated. Quality checks on data are not normally performed. It is possible for incorrect values to appear. Refer to information at About Latest Weather Observations and please check the disclaimer before using these data.